Time;durP1;ratioP1;P1;durP2;ratioP2;P2;SDS_P1;SDS_P2;PMS_P1;PMS_P2;Temp;Humidity;BMP_temperature;BMP_pressure;BME280_temperature;BME280_humidity;BME280_pressure;Samples;Min_cycle;Max_cycle;Signal;HPM_P1;HPM_P2
2022/12/23 00:00:57;;;;;;;;;;;11.00;92.30;;;;;;5073691;28;19919;-35
2022/12/23 00:03:23;;;;;;;;;;;10.90;92.20;;;;;;5073851;28;19912;-34
2022/12/23 00:05:48;;;;;;;;;;;11.00;92.50;;;;;;5073715;28;20292;-38
2022/12/23 00:08:14;;;;;;;;;;;11.00;92.30;;;;;;5073835;28;20327;-35
2022/12/23 00:10:39;;;;;;;;;;;10.90;92.30;;;;;;5073592;28;19959;-42
2022/12/23 00:15:49;;;;;;;;;;;10.90;92.30;;;;;;5073421;28;19969;-35
2022/12/23 00:18:15;;;;;;;;;;;10.90;92.30;;;;;;5073274;28;19913;-34
2022/12/23 00:20:40;;;;;;;;;;;10.90;92.30;;;;;;5073040;28;19958;-34
2022/12/23 00:23:06;;;;;;;;;;;10.90;92.30;;;;;;5073281;28;20043;-37
2022/12/23 00:25:43;;;;;;;;;;;11.00;92.30;;;;;;5073564;28;19912;-34
2022/12/23 00:28:10;;;;;;;;;;;10.90;92.30;;;;;;5073006;28;20437;-36
2022/12/23 00:30:36;;;;;;;;;;;10.90;92.30;;;;;;5073509;28;19913;-34
2022/12/23 00:33:02;;;;;;;;;;;10.90;92.30;;;;;;5072970;28;19913;-35
2022/12/23 00:35:31;;;;;;;;;;;10.90;92.30;;;;;;5072882;28;19920;-35
2022/12/23 00:37:56;;;;;;;;;;;11.00;92.40;;;;;;5072891;28;19912;-34
2022/12/23 00:43:13;;;;;;;;;;;11.00;92.40;;;;;;5056542;28;19966;-34
2022/12/23 00:45:39;;;;;;;;;;;10.90;92.30;;;;;;5073207;28;19917;-35
2022/12/23 00:50:50;;;;;;;;;;;10.90;92.40;;;;;;5072747;28;20026;-35
2022/12/23 00:53:15;;;;;;;;;;;11.00;92.40;;;;;;5072777;28;20011;-35
2022/12/23 00:55:41;;;;;;;;;;;10.90;92.40;;;;;;5072614;28;20387;-34
2022/12/23 00:58:06;;;;;;;;;;;10.90;92.40;;;;;;5072651;28;19919;-35
2022/12/23 01:06:01;;;;;;;;;;;11.00;92.30;;;;;;5072318;28;19919;-37
2022/12/23 01:08:27;;;;;;;;;;;11.00;92.40;;;;;;5072529;28;20291;-35
2022/12/23 01:10:52;;;;;;;;;;;11.00;92.30;;;;;;5072428;28;19912;-34
2022/12/23 01:13:18;;;;;;;;;;;11.00;92.30;;;;;;5072229;28;19921;-35
2022/12/23 01:15:44;;;;;;;;;;;11.00;92.30;;;;;;5072148;28;19912;-35
2022/12/23 01:18:09;;;;;;;;;;;11.00;92.30;;;;;;5072538;28;19916;-35
2022/12/23 01:20:38;;;;;;;;;;;11.00;92.30;;;;;;5072610;28;19912;-35
2022/12/23 01:23:04;;;;;;;;;;;11.00;92.30;;;;;;5072328;28;19913;-35
2022/12/23 01:25:30;;;;;;;;;;;11.00;92.30;;;;;;5072147;28;20006;-36
2022/12/23 01:27:55;;;;;;;;;;;11.00;92.30;;;;;;5072801;28;20006;-34
2022/12/23 01:30:21;;;;;;;;;;;11.00;92.30;;;;;;5072256;28;20380;-34
2022/12/23 01:32:46;;;;;;;;;;;11.00;92.30;;;;;;5071830;28;19912;-34
2022/12/23 01:35:12;;;;;;;;;;;11.00;92.30;;;;;;5072384;28;19924;-33
2022/12/23 01:37:37;;;;;;;;;;;11.00;92.30;;;;;;5072176;28;19912;-35
2022/12/23 01:40:03;;;;;;;;;;;11.00;92.30;;;;;;5072017;28;19913;-35
2022/12/23 01:42:44;;;;;;;;;;;11.00;92.30;;;;;;5072333;28;20001;-37
2022/12/23 01:45:17;;;;;;;;;;;11.00;92.30;;;;;;5072269;28;19947;-35
2022/12/23 01:47:46;;;;;;;;;;;11.00;92.30;;;;;;5071982;28;20012;-35
2022/12/23 01:50:26;;;;;;;;;;;11.00;92.30;;;;;;5071822;28;19912;-37
2022/12/23 01:53:08;;;;;;;;;;;11.00;92.30;;;;;;5072261;28;19912;-39
2022/12/23 01:55:44;;;;;;;;;;;11.10;92.30;;;;;;5071890;28;20281;-35
2022/12/23 01:58:12;;;;;;;;;;;11.10;92.30;;;;;;5071970;28;19963;-35
2022/12/23 02:03:41;;;;;;;;;;;11.10;92.30;;;;;;5071920;28;19966;-34
2022/12/23 02:11:38;;;;;;;;;;;11.00;92.20;;;;;;5072147;28;19985;-34
2022/12/23 02:17:11;;;;;;;;;;;11.00;92.20;;;;;;5071385;28;19919;-35
2022/12/23 02:19:57;;;;;;;;;;;11.00;92.30;;;;;;5071396;28;19913;-35
2022/12/23 02:22:52;;;;;;;;;;;10.90;92.30;;;;;;5030016;28;19912;-35
2022/12/23 02:25:30;;;;;;;;;;;10.90;92.20;;;;;;5053658;28;19912;-34
2022/12/23 02:28:14;;;;;;;;;;;10.90;92.20;;;;;;5071402;28;19912;-35
2022/12/23 02:30:43;;;;;;;;;;;10.90;92.20;;;;;;5071191;28;19923;-35
2022/12/23 02:33:29;;;;;;;;;;;10.90;92.20;;;;;;5071229;28;19952;-35
2022/12/23 02:35:58;;;;;;;;;;;10.90;92.20;;;;;;5070618;28;19955;-34
2022/12/23 02:38:23;;;;;;;;;;;10.90;92.20;;;;;;5071669;28;19954;-40
2022/12/23 02:40:48;;;;;;;;;;;10.90;92.20;;;;;;5071302;28;19916;-35
2022/12/23 02:43:18;;;;;;;;;;;10.90;92.20;;;;;;5071801;28;19943;-44
2022/12/23 02:45:59;;;;;;;;;;;10.90;92.20;;;;;;5075119;28;20296;-37
2022/12/23 02:48:31;;;;;;;;;;;10.90;92.20;;;;;;5074887;28;19912;-33
2022/12/23 02:50:57;;;;;;;;;;;11.00;92.20;;;;;;5075087;28;20003;-35
2022/12/23 02:53:34;;;;;;;;;;;11.00;92.20;;;;;;5074922;28;19986;-35
2022/12/23 02:56:00;;;;;;;;;;;11.00;92.20;;;;;;5074881;28;19916;-37
2022/12/23 02:58:28;;;;;;;;;;;10.90;92.20;;;;;;5074804;28;19912;-34
2022/12/23 03:00:55;;;;;;;;;;;10.90;92.20;;;;;;5075082;28;20261;-34
2022/12/23 03:03:21;;;;;;;;;;;10.90;92.20;;;;;;5075069;28;19919;-34
2022/12/23 03:05:47;;;;;;;;;;;10.90;92.20;;;;;;5074476;28;20376;-34
2022/12/23 03:08:22;;;;;;;;;;;10.90;92.20;;;;;;5074482;28;19912;-34
2022/12/23 03:10:54;;;;;;;;;;;10.90;92.20;;;;;;5074436;28;19920;-35
2022/12/23 03:13:31;;;;;;;;;;;10.90;92.20;;;;;;5074183;28;20325;-35
2022/12/23 03:16:26;;;;;;;;;;;10.90;92.10;;;;;;5074858;28;20003;-35
2022/12/23 03:19:17;;;;;;;;;;;11.00;92.20;;;;;;5056929;28;19916;-35
2022/12/23 03:21:42;;;;;;;;;;;11.00;92.20;;;;;;5074092;28;19927;-35
2022/12/23 03:24:20;;;;;;;;;;;11.00;92.10;;;;;;5074377;28;20006;-35
2022/12/23 03:26:54;;;;;;;;;;;11.00;92.10;;;;;;5074346;28;19913;-34
2022/12/23 03:29:28;;;;;;;;;;;10.90;92.10;;;;;;5074340;28;20011;-35
2022/12/23 03:31:56;;;;;;;;;;;10.90;92.10;;;;;;5074210;28;20338;-35
2022/12/23 03:34:22;;;;;;;;;;;10.90;92.10;;;;;;5073943;28;20402;-34
2022/12/23 03:36:50;;;;;;;;;;;10.80;92.10;;;;;;5073893;28;20492;-35
2022/12/23 03:39:17;;;;;;;;;;;10.80;92.20;;;;;;5073916;28;19913;-34
2022/12/23 03:41:46;;;;;;;;;;;10.70;92.10;;;;;;5073753;28;19996;-35
2022/12/23 03:44:14;;;;;;;;;;;10.80;92.20;;;;;;5073814;28;20280;-35
2022/12/23 03:46:45;;;;;;;;;;;10.70;92.20;;;;;;5073869;28;19927;-37
2022/12/23 03:49:13;;;;;;;;;;;10.70;92.20;;;;;;5073659;28;19912;-35
2022/12/23 03:51:51;;;;;;;;;;;10.70;92.20;;;;;;5073944;28;19935;-35
2022/12/23 03:54:20;;;;;;;;;;;10.80;92.20;;;;;;5073735;28;20376;-34
2022/12/23 03:56:49;;;;;;;;;;;10.80;92.20;;;;;;5072864;28;19962;-35
2022/12/23 03:59:20;;;;;;;;;;;10.70;92.10;;;;;;5073462;28;19912;-35
2022/12/23 04:01:55;;;;;;;;;;;10.70;92.10;;;;;;5072070;28;19912;-43
2022/12/23 04:04:39;;;;;;;;;;;10.70;92.10;;;;;;5073354;28;19951;-37
2022/12/23 04:07:09;;;;;;;;;;;10.70;92.10;;;;;;5073469;28;19958;-34
2022/12/23 04:09:35;;;;;;;;;;;10.70;92.10;;;;;;5073413;28;19912;-34
2022/12/23 04:12:01;;;;;;;;;;;10.70;92.10;;;;;;5073356;28;20295;-34
2022/12/23 04:14:26;;;;;;;;;;;10.70;92.10;;;;;;5073328;28;20393;-34
2022/12/23 04:16:53;;;;;;;;;;;10.70;92.10;;;;;;5073332;28;19966;-34
2022/12/23 04:19:19;;;;;;;;;;;10.70;92.10;;;;;;5073555;28;19952;-35
2022/12/23 04:21:44;;;;;;;;;;;10.70;92.10;;;;;;5073195;28;19920;-43
2022/12/23 04:24:10;;;;;;;;;;;10.70;92.10;;;;;;5073346;28;19919;-35
2022/12/23 04:26:35;;;;;;;;;;;10.70;92.10;;;;;;5072981;28;19916;-35
2022/12/23 04:29:01;;;;;;;;;;;10.70;92.10;;;;;;5073071;28;19913;-35
2022/12/23 04:31:26;;;;;;;;;;;10.60;92.00;;;;;;5073056;28;19913;-34
2022/12/23 04:33:52;;;;;;;;;;;10.60;92.10;;;;;;5072797;28;20372;-35
2022/12/23 04:36:17;;;;;;;;;;;10.60;92.10;;;;;;5072890;28;19999;-34
2022/12/23 04:38:42;;;;;;;;;;;10.60;92.10;;;;;;5073052;28;19931;-35
2022/12/23 04:41:08;;;;;;;;;;;10.60;92.00;;;;;;5073215;28;19912;-34
2022/12/23 04:43:33;;;;;;;;;;;10.60;92.00;;;;;;5072875;28;19948;-34
2022/12/23 04:45:59;;;;;;;;;;;10.60;92.00;;;;;;5072757;28;19921;-34
2022/12/23 04:48:24;;;;;;;;;;;10.50;92.00;;;;;;5073037;28;20003;-34
2022/12/23 04:50:50;;;;;;;;;;;10.60;92.00;;;;;;5072772;28;19920;-34
2022/12/23 04:53:15;;;;;;;;;;;10.60;92.00;;;;;;5072522;28;19912;-34
2022/12/23 04:55:41;;;;;;;;;;;10.60;92.00;;;;;;5072735;28;19913;-36
2022/12/23 04:58:07;;;;;;;;;;;10.60;92.00;;;;;;5072864;28;20004;-38
2022/12/23 05:00:32;;;;;;;;;;;10.60;92.00;;;;;;5072855;28;19930;-35
2022/12/23 05:02:58;;;;;;;;;;;10.60;92.00;;;;;;5072361;28;20055;-35
2022/12/23 05:05:23;;;;;;;;;;;10.60;92.00;;;;;;5072393;28;20050;-34
2022/12/23 05:07:49;;;;;;;;;;;10.60;92.00;;;;;;5071874;28;20322;-35
2022/12/23 05:10:14;;;;;;;;;;;10.60;92.00;;;;;;5072483;28;19912;-34
2022/12/23 05:12:40;;;;;;;;;;;10.50;91.90;;;;;;5072578;28;19920;-35
2022/12/23 05:15:06;;;;;;;;;;;10.60;92.00;;;;;;5072198;28;19920;-39
2022/12/23 05:17:31;;;;;;;;;;;10.60;92.00;;;;;;5072384;28;19982;-36
2022/12/23 05:19:57;;;;;;;;;;;10.60;92.00;;;;;;5072235;28;20400;-44
2022/12/23 05:22:22;;;;;;;;;;;10.60;92.00;;;;;;5070906;28;19913;-35
2022/12/23 05:24:48;;;;;;;;;;;10.60;92.00;;;;;;5072271;28;20376;-34
2022/12/23 05:27:13;;;;;;;;;;;10.60;92.00;;;;;;5072300;28;20043;-35
2022/12/23 05:29:39;;;;;;;;;;;10.60;92.00;;;;;;5072418;28;19923;-35
2022/12/23 05:32:04;;;;;;;;;;;10.60;91.90;;;;;;5072069;28;19912;-34
2022/12/23 05:34:30;;;;;;;;;;;10.60;91.90;;;;;;5071954;28;19939;-35
2022/12/23 05:36:55;;;;;;;;;;;10.70;91.90;;;;;;5071961;28;19922;-39
2022/12/23 05:39:21;;;;;;;;;;;10.60;91.90;;;;;;5072179;28;19912;-35
2022/12/23 05:41:46;;;;;;;;;;;10.70;91.90;;;;;;5072174;28;20034;-40
2022/12/23 05:44:12;;;;;;;;;;;10.70;91.90;;;;;;5072049;28;19959;-35
2022/12/23 05:46:37;;;;;;;;;;;10.70;91.90;;;;;;5072167;28;19917;-35
2022/12/23 05:49:03;;;;;;;;;;;10.60;91.90;;;;;;5072100;28;20186;-35
2022/12/23 05:51:28;;;;;;;;;;;10.70;91.90;;;;;;5071998;28;19916;-36
2022/12/23 05:53:54;;;;;;;;;;;10.70;91.90;;;;;;5071755;28;19956;-34
2022/12/23 05:56:19;;;;;;;;;;;10.70;91.90;;;;;;5070605;28;19974;-35
2022/12/23 05:58:44;;;;;;;;;;;10.60;91.90;;;;;;5071893;28;19916;-34
2022/12/23 06:01:10;;;;;;;;;;;10.70;91.90;;;;;;5071801;28;20013;-35
2022/12/23 06:03:35;;;;;;;;;;;10.70;91.90;;;;;;5071934;28;19912;-35
2022/12/23 06:06:01;;;;;;;;;;;10.70;91.90;;;;;;5071790;28;19912;-35
2022/12/23 06:08:26;;;;;;;;;;;10.70;91.90;;;;;;5070713;28;20368;-34
2022/12/23 06:10:52;;;;;;;;;;;10.80;91.90;;;;;;5071982;28;19919;-35
2022/12/23 06:13:18;;;;;;;;;;;10.70;91.80;;;;;;5071745;28;19917;-35
2022/12/23 06:15:43;;;;;;;;;;;10.70;91.80;;;;;;5072075;28;19912;-35
2022/12/23 06:18:09;;;;;;;;;;;10.70;91.80;;;;;;5072223;28;19923;-35
2022/12/23 06:20:34;;;;;;;;;;;10.70;91.80;;;;;;5074250;28;19912;-35
2022/12/23 06:23:00;;;;;;;;;;;10.70;91.80;;;;;;5075579;28;19957;-35
2022/12/23 06:25:26;;;;;;;;;;;10.60;91.80;;;;;;5075771;28;19913;-38
2022/12/23 06:27:51;;;;;;;;;;;10.60;91.80;;;;;;5075453;28;19916;-35
2022/12/23 06:30:17;;;;;;;;;;;10.60;91.80;;;;;;5075522;28;19912;-34
2022/12/23 06:32:42;;;;;;;;;;;10.50;91.80;;;;;;5075277;28;20318;-35
2022/12/23 06:35:08;;;;;;;;;;;10.50;91.90;;;;;;5075134;28;19916;-34
2022/12/23 06:37:34;;;;;;;;;;;10.50;91.90;;;;;;5075218;28;20318;-35
2022/12/23 06:39:59;;;;;;;;;;;10.50;91.90;;;;;;5075388;28;19916;-35
2022/12/23 06:42:25;;;;;;;;;;;10.50;91.90;;;;;;5075180;28;20367;-37
2022/12/23 06:44:50;;;;;;;;;;;10.50;91.90;;;;;;5073922;28;19912;-35
2022/12/23 06:47:15;;;;;;;;;;;10.40;91.90;;;;;;5074914;28;20011;-38
2022/12/23 06:49:41;;;;;;;;;;;10.40;91.90;;;;;;5075164;28;19917;-37
2022/12/23 06:52:06;;;;;;;;;;;10.40;91.90;;;;;;5074861;28;19912;-36
2022/12/23 06:54:32;;;;;;;;;;;10.40;91.90;;;;;;5074753;28;19962;-37
2022/12/23 06:56:57;;;;;;;;;;;10.40;91.90;;;;;;5074863;28;19920;-34
2022/12/23 06:59:23;;;;;;;;;;;10.40;91.90;;;;;;5075121;28;20007;-37
2022/12/23 07:01:48;;;;;;;;;;;10.50;91.90;;;;;;5074657;28;19917;-42
2022/12/23 07:04:14;;;;;;;;;;;10.40;91.90;;;;;;5074736;28;19912;-37
2022/12/23 07:06:39;;;;;;;;;;;10.50;91.90;;;;;;5074407;28;20295;-35
2022/12/23 07:09:06;;;;;;;;;;;10.50;91.90;;;;;;5074583;28;19957;-35
2022/12/23 07:11:31;;;;;;;;;;;10.50;91.90;;;;;;5074830;28;19978;-35
2022/12/23 07:13:59;;;;;;;;;;;10.50;91.90;;;;;;5074280;28;19920;-35
2022/12/23 07:16:24;;;;;;;;;;;10.60;91.90;;;;;;5074631;28;20212;-35
2022/12/23 07:18:50;;;;;;;;;;;10.60;91.90;;;;;;5074384;28;20390;-35
2022/12/23 07:21:15;;;;;;;;;;;10.60;91.90;;;;;;5074521;28;20007;-42
2022/12/23 07:23:40;;;;;;;;;;;10.50;91.80;;;;;;5074387;28;19919;-35
2022/12/23 07:26:06;;;;;;;;;;;10.50;91.80;;;;;;5074273;28;19934;-35
2022/12/23 07:28:31;;;;;;;;;;;10.50;91.80;;;;;;5074601;28;19912;-37
2022/12/23 07:30:57;;;;;;;;;;;10.50;91.80;;;;;;5072258;28;20208;-35
2022/12/23 07:33:22;;;;;;;;;;;10.50;91.90;;;;;;5074476;28;19913;-35
2022/12/23 07:35:48;;;;;;;;;;;10.40;91.90;;;;;;5074411;28;20383;-36
2022/12/23 07:38:13;;;;;;;;;;;10.40;92.20;;;;;;5074187;28;20007;-37
2022/12/23 07:40:39;;;;;;;;;;;10.40;91.90;;;;;;5074116;28;19917;-46
2022/12/23 07:43:04;;;;;;;;;;;10.50;91.90;;;;;;5074210;28;19931;-34
2022/12/23 07:45:30;;;;;;;;;;;10.50;91.90;;;;;;5073980;28;19919;-34
2022/12/23 07:47:56;;;;;;;;;;;10.50;91.90;;;;;;5073983;28;19927;-35
2022/12/23 07:50:22;;;;;;;;;;;10.50;91.90;;;;;;5074071;28;20312;-35
2022/12/23 07:52:48;;;;;;;;;;;10.50;91.80;;;;;;5073782;28;19915;-35
2022/12/23 07:55:13;;;;;;;;;;;10.50;91.80;;;;;;5073983;28;19960;-36
2022/12/23 07:57:39;;;;;;;;;;;10.50;91.80;;;;;;5073707;28;20291;-34
2022/12/23 08:00:08;;;;;;;;;;;10.50;91.80;;;;;;5073921;28;20000;-35
2022/12/23 08:02:34;;;;;;;;;;;10.50;91.80;;;;;;5073548;28;19913;-33
2022/12/23 08:05:00;;;;;;;;;;;10.50;91.80;;;;;;5073591;28;19909;-35
2022/12/23 08:07:25;;;;;;;;;;;10.60;91.90;;;;;;5073815;28;19926;-35
2022/12/23 08:09:51;;;;;;;;;;;10.60;91.80;;;;;;5073775;28;20022;-35
2022/12/23 08:12:16;;;;;;;;;;;10.60;91.80;;;;;;5073390;28;20384;-43
2022/12/23 08:14:42;;;;;;;;;;;10.60;91.80;;;;;;5073762;28;19960;-35
2022/12/23 08:17:07;;;;;;;;;;;10.60;91.80;;;;;;5073512;28;20325;-47
2022/12/23 08:19:33;;;;;;;;;;;10.60;91.80;;;;;;5073277;28;19916;-35
2022/12/23 08:21:58;;;;;;;;;;;10.60;91.80;;;;;;5073580;28;19912;-34
2022/12/23 08:24:24;;;;;;;;;;;10.70;91.80;;;;;;5073953;28;19958;-34
2022/12/23 08:26:49;;;;;;;;;;;10.70;91.80;;;;;;5073452;28;20428;-35
2022/12/23 08:29:15;;;;;;;;;;;10.70;91.80;;;;;;5073129;28;19954;-37
2022/12/23 08:31:40;;;;;;;;;;;10.70;91.70;;;;;;5073029;28;20011;-35
2022/12/23 08:34:06;;;;;;;;;;;10.70;91.70;;;;;;5073460;28;19913;-35
2022/12/23 08:36:32;;;;;;;;;;;10.70;91.70;;;;;;5073137;28;19908;-39
2022/12/23 08:38:59;;;;;;;;;;;10.70;91.70;;;;;;5072954;28;19912;-35
2022/12/23 08:41:26;;;;;;;;;;;10.70;91.70;;;;;;5072868;28;20429;-33
2022/12/23 08:43:52;;;;;;;;;;;10.70;91.70;;;;;;5073185;28;19908;-35
2022/12/23 08:46:17;;;;;;;;;;;10.80;91.80;;;;;;5072662;28;20524;-38
2022/12/23 08:48:43;;;;;;;;;;;10.70;91.70;;;;;;5072769;28;20011;-37
2022/12/23 08:51:10;;;;;;;;;;;10.70;91.70;;;;;;5072765;28;19919;-35
2022/12/23 08:53:36;;;;;;;;;;;10.70;91.70;;;;;;5072706;28;19913;-37
2022/12/23 08:56:03;;;;;;;;;;;10.80;91.70;;;;;;5072645;28;19908;-41
2022/12/23 08:58:28;;;;;;;;;;;10.80;91.70;;;;;;5072752;28;19908;-35
2022/12/23 09:00:54;;;;;;;;;;;10.80;91.70;;;;;;5072696;28;20301;-36
2022/12/23 09:03:19;;;;;;;;;;;10.80;91.70;;;;;;5072518;28;19958;-35
2022/12/23 09:05:45;;;;;;;;;;;10.80;91.70;;;;;;5072430;28;19916;-35
2022/12/23 09:08:10;;;;;;;;;;;10.80;91.70;;;;;;5072384;28;20276;-36
2022/12/23 09:10:42;;;;;;;;;;;10.80;91.70;;;;;;5072412;28;19962;-35
2022/12/23 09:13:09;;;;;;;;;;;10.80;91.70;;;;;;5072485;28;19956;-35
2022/12/23 09:15:38;;;;;;;;;;;10.80;91.70;;;;;;5072699;28;19913;-35
2022/12/23 09:18:04;;;;;;;;;;;10.80;91.70;;;;;;5072712;28;19999;-36
2022/12/23 09:20:30;;;;;;;;;;;10.80;91.70;;;;;;5072253;28;20009;-34
2022/12/23 09:22:55;;;;;;;;;;;10.80;91.70;;;;;;5072593;28;19912;-35
2022/12/23 09:25:21;;;;;;;;;;;10.80;91.70;;;;;;5072550;28;19916;-36
2022/12/23 09:27:46;;;;;;;;;;;10.80;91.70;;;;;;5072488;28;20337;-46
2022/12/23 09:30:12;;;;;;;;;;;10.80;91.70;;;;;;5072657;28;19919;-38
2022/12/23 09:32:37;;;;;;;;;;;10.80;91.70;;;;;;5072321;28;20438;-35
2022/12/23 09:35:03;;;;;;;;;;;10.80;91.70;;;;;;5072093;28;19912;-37
2022/12/23 09:37:29;;;;;;;;;;;10.80;91.70;;;;;;5072166;28;19916;-35
2022/12/23 09:39:54;;;;;;;;;;;10.80;91.70;;;;;;5072376;28;19912;-38
2022/12/23 09:42:38;;;;;;;;;;;10.80;91.70;;;;;;5072003;28;19914;-36
2022/12/23 09:45:17;;;;;;;;;;;10.80;91.70;;;;;;5072078;28;19913;-35
2022/12/23 09:47:43;;;;;;;;;;;10.80;91.70;;;;;;5072455;28;19956;-36
2022/12/23 09:50:13;;;;;;;;;;;10.80;91.70;;;;;;5072264;28;20318;-35
2022/12/23 09:52:57;;;;;;;;;;;10.80;91.70;;;;;;5072416;28;19909;-40
2022/12/23 09:55:27;;;;;;;;;;;10.90;91.70;;;;;;5076134;28;20287;-36
2022/12/23 09:58:07;;;;;;;;;;;10.80;91.60;;;;;;5076216;28;19909;-35
2022/12/23 10:00:37;;;;;;;;;;;10.80;91.60;;;;;;5076051;28;19908;-36
2022/12/23 10:03:03;;;;;;;;;;;10.80;91.60;;;;;;5076320;28;19948;-36
2022/12/23 10:05:38;;;;;;;;;;;10.80;91.70;;;;;;5075855;28;20364;-35
2022/12/23 10:08:10;;;;;;;;;;;10.80;91.70;;;;;;5076219;28;19909;-35
2022/12/23 10:10:41;;;;;;;;;;;10.80;91.70;;;;;;5076049;28;19909;-37
2022/12/23 10:13:10;;;;;;;;;;;10.80;91.70;;;;;;5075823;28;19920;-35
2022/12/23 10:15:41;;;;;;;;;;;10.80;91.70;;;;;;5076348;28;20237;-35
2022/12/23 10:18:20;;;;;;;;;;;10.80;91.70;;;;;;5074666;28;19908;-35
2022/12/23 10:21:06;;;;;;;;;;;10.80;91.70;;;;;;5075883;28;20249;-35
2022/12/23 10:23:40;;;;;;;;;;;10.80;91.70;;;;;;5075056;28;19908;-35
2022/12/23 10:26:16;;;;;;;;;;;10.80;91.70;;;;;;5075573;28;19913;-35
2022/12/23 10:28:41;;;;;;;;;;;10.80;91.70;;;;;;5075550;28;19909;-35
2022/12/23 10:31:12;;;;;;;;;;;10.80;91.70;;;;;;5075547;28;19974;-34
2022/12/23 10:33:44;;;;;;;;;;;10.80;91.60;;;;;;5075261;28;19912;-35
2022/12/23 10:36:22;;;;;;;;;;;10.90;91.70;;;;;;5075354;28;19955;-40
2022/12/23 10:38:47;;;;;;;;;;;10.80;91.60;;;;;;5075241;28;19957;-35
2022/12/23 10:41:31;;;;;;;;;;;10.90;91.70;;;;;;5075131;28;19995;-37
2022/12/23 10:44:15;;;;;;;;;;;10.90;91.70;;;;;;5075251;28;20411;-42
2022/12/23 10:46:44;;;;;;;;;;;10.90;91.60;;;;;;5075114;28;19909;-35
2022/12/23 10:49:28;;;;;;;;;;;10.90;91.60;;;;;;5075199;28;19991;-33
2022/12/23 10:51:58;;;;;;;;;;;10.90;91.60;;;;;;5075002;28;19908;-34
2022/12/23 10:54:29;;;;;;;;;;;10.90;91.70;;;;;;5074767;28;20359;-34
2022/12/23 10:56:55;;;;;;;;;;;10.90;91.90;;;;;;5074822;28;19978;-35
2022/12/23 10:59:22;;;;;;;;;;;10.90;91.70;;;;;;5074877;28;19909;-34
2022/12/23 11:01:51;;;;;;;;;;;10.90;91.60;;;;;;5074634;28;19908;-34
2022/12/23 11:04:18;;;;;;;;;;;10.90;91.60;;;;;;5074695;28;19908;-46
2022/12/23 11:06:49;;;;;;;;;;;10.90;91.60;;;;;;5074563;28;19919;-34
2022/12/23 11:09:20;;;;;;;;;;;10.90;91.70;;;;;;5074805;28;19909;-38
2022/12/23 11:11:51;;;;;;;;;;;10.90;91.70;;;;;;5074699;28;19915;-35
2022/12/23 11:14:35;;;;;;;;;;;10.90;91.70;;;;;;5074259;28;19921;-33
2022/12/23 11:17:01;;;;;;;;;;;10.90;91.60;;;;;;5074650;28;20275;-34
2022/12/23 11:19:26;;;;;;;;;;;10.90;91.60;;;;;;5074554;28;19909;-34
2022/12/23 11:21:56;;;;;;;;;;;10.90;91.60;;;;;;5073327;28;19931;-37
2022/12/23 11:24:23;;;;;;;;;;;10.90;91.60;;;;;;5074439;28;20046;-41
2022/12/23 11:26:57;;;;;;;;;;;11.00;91.60;;;;;;5074270;28;20388;-35
2022/12/23 11:29:26;;;;;;;;;;;10.90;91.60;;;;;;5074433;28;19909;-38
2022/12/23 11:31:52;;;;;;;;;;;10.90;91.60;;;;;;5074085;28;19909;-34
2022/12/23 11:34:18;;;;;;;;;;;11.00;91.70;;;;;;5074159;28;20391;-33
2022/12/23 11:36:50;;;;;;;;;;;10.90;91.60;;;;;;5074105;28;19909;-38
2022/12/23 11:39:22;;;;;;;;;;;10.90;91.60;;;;;;5074225;28;19915;-36
2022/12/23 11:41:49;;;;;;;;;;;11.00;91.70;;;;;;5074089;28;19909;-35
2022/12/23 11:44:32;;;;;;;;;;;11.00;91.60;;;;;;5074131;28;19908;-37
2022/12/23 11:47:16;;;;;;;;;;;11.00;91.60;;;;;;5073971;28;19934;-33
2022/12/23 11:50:10;;;;;;;;;;;11.00;91.60;;;;;;5074026;28;20356;-34
2022/12/23 11:52:36;;;;;;;;;;;11.00;91.70;;;;;;5056216;28;19909;-35
2022/12/23 11:55:03;;;;;;;;;;;11.00;91.60;;;;;;5073723;28;19919;-34
2022/12/23 11:57:47;;;;;;;;;;;11.00;91.70;;;;;;5072504;28;20371;-34
2022/12/23 12:00:19;;;;;;;;;;;11.00;91.70;;;;;;5073766;28;19950;-34
2022/12/23 12:02:45;;;;;;;;;;;11.00;91.60;;;;;;5073601;28;19908;-34
2022/12/23 12:05:32;;;;;;;;;;;11.00;91.60;;;;;;5073412;28;19931;-34
2022/12/23 12:07:59;;;;;;;;;;;11.00;91.70;;;;;;5073565;28;19952;-34
2022/12/23 12:10:26;;;;;;;;;;;11.00;91.60;;;;;;5073476;28;19958;-38
2022/12/23 12:12:55;;;;;;;;;;;11.00;91.70;;;;;;5073230;28;20430;-34
2022/12/23 12:15:25;;;;;;;;;;;11.00;91.70;;;;;;5073234;28;20000;-34
2022/12/23 12:17:52;;;;;;;;;;;11.00;91.70;;;;;;5072832;28;19912;-34
2022/12/23 12:20:17;;;;;;;;;;;11.00;91.70;;;;;;5073431;28;19960;-34
2022/12/23 12:22:46;;;;;;;;;;;11.00;91.70;;;;;;5073204;28;19963;-36
2022/12/23 12:25:19;;;;;;;;;;;11.00;91.70;;;;;;5073066;28;20006;-34
2022/12/23 12:27:49;;;;;;;;;;;11.00;91.70;;;;;;5073428;28;20372;-35
2022/12/23 12:30:17;;;;;;;;;;;10.90;91.60;;;;;;5073055;28;19944;-34
2022/12/23 12:32:52;;;;;;;;;;;10.90;91.60;;;;;;5073381;28;19908;-36
2022/12/23 12:35:44;;;;;;;;;;;10.90;91.70;;;;;;5073223;28;20379;-33
2022/12/23 12:38:20;;;;;;;;;;;11.00;91.70;;;;;;5041935;28;19908;-33
2022/12/23 12:40:51;;;;;;;;;;;10.90;91.60;;;;;;5072917;28;19959;-33
2022/12/23 12:43:33;;;;;;;;;;;10.90;91.70;;;;;;5073357;28;19929;-34
2022/12/23 12:46:05;;;;;;;;;;;10.90;91.70;;;;;;5072718;28;19916;-31
2022/12/23 12:48:30;;;;;;;;;;;10.90;91.70;;;;;;5072714;28;19912;-33
2022/12/23 12:50:59;;;;;;;;;;;10.90;91.70;;;;;;5072667;28;19930;-34
2022/12/23 12:53:26;;;;;;;;;;;10.90;92.00;;;;;;5072774;28;19908;-34
2022/12/23 12:55:54;;;;;;;;;;;10.90;91.80;;;;;;5072520;28;20205;-34
2022/12/23 12:58:21;;;;;;;;;;;10.80;91.80;;;;;;5072900;28;20372;-34
2022/12/23 13:01:05;;;;;;;;;;;10.80;91.80;;;;;;5072851;28;19912;-36
2022/12/23 13:03:51;;;;;;;;;;;10.80;91.80;;;;;;5072777;28;19908;-34
2022/12/23 13:06:22;;;;;;;;;;;10.80;91.80;;;;;;5031214;28;19908;-35
2022/12/23 13:08:53;;;;;;;;;;;10.70;91.80;;;;;;5072702;28;19913;-34
2022/12/23 13:11:57;;;;;;;;;;;10.70;91.90;;;;;;5072610;28;19908;-35
2022/12/23 13:14:28;;;;;;;;;;;10.70;91.90;;;;;;4990694;28;19922;-34
2022/12/23 13:17:11;;;;;;;;;;;10.70;91.80;;;;;;4990882;28;19910;-35
2022/12/23 13:19:45;;;;;;;;;;;10.80;91.90;;;;;;5040868;28;19908;-35
2022/12/23 13:22:13;;;;;;;;;;;10.70;91.80;;;;;;5072672;28;19950;-34
2022/12/23 13:25:02;;;;;;;;;;;10.70;91.80;;;;;;5072439;28;20376;-34
2022/12/23 13:27:37;;;;;;;;;;;10.80;91.80;;;;;;5071737;28;19935;-32
2022/12/23 13:30:19;;;;;;;;;;;10.70;91.80;;;;;;5071994;28;19919;-34
2022/12/23 13:32:55;;;;;;;;;;;10.80;91.80;;;;;;5072376;28;19913;-34
2022/12/23 13:35:29;;;;;;;;;;;10.80;91.80;;;;;;5072258;28;19913;-34
2022/12/23 13:37:57;;;;;;;;;;;10.80;91.80;;;;;;5072219;28;19954;-35
2022/12/23 13:40:25;;;;;;;;;;;10.80;91.80;;;;;;5072131;28;19908;-33
2022/12/23 13:42:56;;;;;;;;;;;10.80;91.80;;;;;;5072564;28;20398;-35
2022/12/23 13:45:25;;;;;;;;;;;10.80;91.80;;;;;;5072145;28;20311;-34
2022/12/23 13:47:53;;;;;;;;;;;10.80;92.10;;;;;;5072191;28;19909;-36
2022/12/23 13:50:25;;;;;;;;;;;10.80;91.80;;;;;;5070892;28;19908;-33
2022/12/23 13:52:53;;;;;;;;;;;10.80;91.80;;;;;;5072433;28;19915;-35
2022/12/23 13:55:48;;;;;;;;;;;10.80;91.80;;;;;;5072002;28;19912;-35
2022/12/23 13:58:18;;;;;;;;;;;10.80;91.80;;;;;;5071997;28;20364;-36
2022/12/23 14:00:44;;;;;;;;;;;10.80;91.80;;;;;;5071987;28;20003;-35
2022/12/23 14:03:11;;;;;;;;;;;10.90;91.80;;;;;;5071955;28;19952;-35
2022/12/23 14:05:38;;;;;;;;;;;10.80;91.80;;;;;;5072479;28;19915;-43
2022/12/23 14:08:05;;;;;;;;;;;10.80;91.80;;;;;;5071819;28;20011;-39
2022/12/23 14:10:31;;;;;;;;;;;10.80;91.80;;;;;;5072171;28;19944;-35
2022/12/23 14:12:59;;;;;;;;;;;10.90;91.80;;;;;;5071810;28;19928;-37
2022/12/23 14:15:37;;;;;;;;;;;10.90;91.80;;;;;;5071830;28;19913;-36
2022/12/23 14:18:11;;;;;;;;;;;10.90;91.80;;;;;;5072001;28;19912;-37
2022/12/23 14:20:44;;;;;;;;;;;10.90;91.80;;;;;;5072046;28;19909;-35
2022/12/23 14:23:09;;;;;;;;;;;10.90;91.80;;;;;;5071520;28;19908;-35
2022/12/23 14:25:54;;;;;;;;;;;10.90;91.80;;;;;;5071736;28;19908;-35
2022/12/23 14:28:28;;;;;;;;;;;10.90;91.80;;;;;;5071759;28;20428;-35
2022/12/23 14:30:54;;;;;;;;;;;10.90;91.80;;;;;;5071966;28;19916;-35
2022/12/23 14:33:22;;;;;;;;;;;10.90;91.80;;;;;;5071801;28;19923;-37
2022/12/23 14:35:49;;;;;;;;;;;10.80;91.70;;;;;;5071486;28;19919;-36
2022/12/23 14:38:15;;;;;;;;;;;10.80;91.80;;;;;;5071758;28;19934;-35
2022/12/23 14:40:41;;;;;;;;;;;10.90;91.80;;;;;;5074464;28;19999;-35
2022/12/23 14:43:15;;;;;;;;;;;10.90;91.80;;;;;;5075248;28;19931;-35
2022/12/23 14:45:41;;;;;;;;;;;10.80;91.80;;;;;;5075496;28;20404;-35
2022/12/23 14:48:26;;;;;;;;;;;10.80;91.80;;;;;;5075429;28;19908;-35
2022/12/23 14:50:58;;;;;;;;;;;10.80;91.80;;;;;;5073894;28;19909;-34
2022/12/23 14:53:28;;;;;;;;;;;10.80;91.90;;;;;;5075195;28;20279;-35